createdAt,value
2023-02-02T00:01:01.331Z,10.00
2023-02-02T00:04:04.489Z,9.32
2023-02-02T00:07:07.593Z,9.63
2023-02-02T00:10:11.099Z,10.32
2023-02-02T00:13:14.583Z,9.20
2023-02-02T00:16:39.759Z,8.48
2023-02-02T00:19:42.672Z,9.77
2023-02-02T00:22:45.484Z,10.65
2023-02-02T00:25:51.241Z,7.97
2023-02-02T00:28:54.119Z,10.53
2023-02-02T00:31:58.646Z,9.90
2023-02-02T00:35:01.555Z,10.05
2023-02-02T00:38:04.375Z,9.75
2023-02-02T00:41:07.517Z,9.75
2023-02-02T00:44:28.772Z,10.20
2023-02-02T00:47:31.512Z,9.85
2023-02-02T00:50:34.671Z,10.63
2023-02-02T00:53:38.202Z,10.10
2023-02-02T00:56:41.712Z,10.35
2023-02-02T00:59:44.515Z,9.83
2023-02-02T01:02:47.563Z,10.20
2023-02-02T01:05:52.172Z,8.70
2023-02-02T01:08:55.083Z,9.68
2023-02-02T01:11:58.826Z,11.88
2023-02-02T01:15:02.685Z,10.37
2023-02-02T01:18:07.345Z,10.75
2023-02-02T01:21:12.787Z,10.20
2023-02-02T01:24:15.576Z,9.90
2023-02-02T01:27:18.685Z,10.20
2023-02-02T01:30:21.613Z,12.37
2023-02-02T01:33:25.608Z,10.80
2023-02-02T01:36:28.388Z,11.05
2023-02-02T01:39:34.216Z,10.73
2023-02-02T01:42:37.087Z,10.35
2023-02-02T01:45:39.885Z,10.17
2023-02-02T01:48:47.048Z,9.75
2023-02-02T01:51:59.363Z,9.18
2023-02-02T01:55:08.836Z,8.00
2023-02-02T01:58:17.576Z,8.23
2023-02-02T02:01:20.779Z,8.77
2023-02-02T02:04:25.447Z,9.07
2023-02-02T02:07:28.442Z,8.77
2023-02-02T02:10:31.417Z,9.32
2023-02-02T02:13:56.708Z,8.48
2023-02-02T02:17:25.654Z,9.23
2023-02-02T02:21:09.944Z,9.25
2023-02-02T02:24:54.339Z,8.98
2023-02-02T02:28:25.209Z,8.52
2023-02-02T02:31:53.160Z,8.52
2023-02-02T02:35:17.320Z,9.07
2023-02-02T02:38:30.599Z,9.65
2023-02-02T02:41:37.822Z,8.70
2023-02-02T02:44:42.100Z,8.82
2023-02-02T02:47:45.455Z,9.85
2023-02-02T02:50:48.352Z,11.30
2023-02-02T02:53:51.151Z,11.52
2023-02-02T02:57:09.943Z,11.05
2023-02-02T03:00:35.455Z,10.32
2023-02-02T03:03:55.433Z,11.65
2023-02-02T03:07:05.458Z,12.40
2023-02-02T03:10:12.610Z,11.95
2023-02-02T03:13:16.995Z,13.10
2023-02-02T03:16:19.686Z,13.30
2023-02-02T03:19:22.491Z,13.82
2023-02-02T03:22:25.519Z,15.60
2023-02-02T03:25:28.496Z,12.48
2023-02-02T03:28:32.632Z,14.18
2023-02-02T03:31:35.481Z,13.07
2023-02-02T03:34:43.229Z,11.48
2023-02-02T03:37:46.199Z,12.80
2023-02-02T03:40:49.050Z,12.10
2023-02-02T03:43:51.858Z,13.10
2023-02-02T03:46:55.242Z,11.30
2023-02-02T03:49:58.066Z,11.60
2023-02-02T03:53:00.913Z,12.17
2023-02-02T03:56:04.094Z,10.80
2023-02-02T03:59:07.169Z,11.40
2023-02-02T04:02:09.939Z,10.77
2023-02-02T04:05:12.778Z,12.05
2023-02-02T04:08:15.782Z,11.43
2023-02-02T04:11:19.405Z,11.45
2023-02-02T04:14:22.198Z,11.55
2023-02-02T04:17:25.044Z,11.10
2023-02-02T04:20:27.849Z,11.48
2023-02-02T04:23:31.369Z,11.00
2023-02-02T04:26:34.242Z,10.57
2023-02-02T04:29:37.179Z,11.18
2023-02-02T04:32:40.183Z,9.80
2023-02-02T04:35:43.947Z,8.45
2023-02-02T04:38:50.179Z,7.57
2023-02-02T04:41:52.969Z,8.13
2023-02-02T04:44:55.658Z,8.25
2023-02-02T04:47:58.450Z,7.28
2023-02-02T04:51:03.012Z,3.83
2023-02-02T04:54:07.345Z,3.27
2023-02-02T04:57:10.098Z,3.33
2023-02-02T05:00:18.677Z,3.10
2023-02-02T05:03:21.555Z,2.65
2023-02-02T05:06:24.667Z,2.20
2023-02-02T05:09:27.587Z,2.00
2023-02-02T05:12:30.793Z,1.80
2023-02-02T05:15:33.835Z,1.77
2023-02-02T05:18:36.681Z,1.70
2023-02-02T05:21:39.453Z,2.15
2023-02-02T05:24:42.220Z,1.87
2023-02-02T05:27:46.603Z,2.75
2023-02-02T05:30:49.769Z,1.58
2023-02-02T05:33:52.913Z,1.85
2023-02-02T05:36:55.689Z,2.28
2023-02-02T05:39:58.589Z,0.60
2023-02-02T05:43:01.407Z,0.60
2023-02-02T05:46:08.948Z,0.80
2023-02-02T05:49:14.158Z,0.20
2023-02-02T05:52:21.713Z,0.13
2023-02-02T05:55:24.788Z,0.30
2023-02-02T05:58:28.484Z,0.00
2023-02-02T06:01:31.440Z,0.20
2023-02-02T06:04:34.292Z,0.15
2023-02-02T06:07:37.094Z,0.40
2023-02-02T06:10:42.665Z,0.60
2023-02-02T06:13:46.354Z,0.10
2023-02-02T06:16:49.111Z,0.32
2023-02-02T06:19:51.872Z,0.10
2023-02-02T06:22:54.878Z,0.38
2023-02-02T06:25:57.773Z,0.50
2023-02-02T06:29:00.805Z,0.38
2023-02-02T06:32:04.185Z,0.22
2023-02-02T06:35:08.169Z,0.20
2023-02-02T06:38:11.542Z,0.40
2023-02-02T06:41:14.319Z,1.27
2023-02-02T06:44:19.402Z,0.60
2023-02-02T06:47:22.264Z,1.40
2023-02-02T06:50:25.156Z,1.33
2023-02-02T06:53:28.422Z,1.13
2023-02-02T06:56:31.248Z,0.63
2023-02-02T06:59:43.583Z,0.75
2023-02-02T07:02:47.731Z,1.70
2023-02-02T07:05:51.056Z,1.67
2023-02-02T07:09:03.488Z,1.80
2023-02-02T07:12:10.347Z,1.60
2023-02-02T07:15:18.187Z,1.60
2023-02-02T07:18:21.306Z,0.98
2023-02-02T07:21:26.657Z,0.95
2023-02-02T07:24:29.595Z,0.90
2023-02-02T07:27:34.271Z,0.77
2023-02-02T07:30:37.746Z,0.50
2023-02-02T07:33:42.561Z,0.73
2023-02-02T07:36:45.698Z,0.50
2023-02-02T07:39:48.573Z,0.47
2023-02-02T07:42:51.463Z,0.73
2023-02-02T07:45:54.435Z,0.60
2023-02-02T07:48:58.084Z,0.80
2023-02-02T07:52:01.032Z,0.70
2023-02-02T07:55:14.387Z,0.85
2023-02-02T07:58:17.884Z,0.60
2023-02-02T08:01:23.228Z,0.73
2023-02-02T08:04:26.297Z,1.20
2023-02-02T08:07:29.367Z,3.20
2023-02-02T08:10:32.185Z,2.55
2023-02-02T08:13:35.017Z,1.33
2023-02-02T08:16:37.935Z,1.60
2023-02-02T08:19:40.685Z,4.00
2023-02-02T08:22:43.675Z,2.28
2023-02-02T08:25:46.535Z,3.05
2023-02-02T08:29:03.021Z,3.00
2023-02-02T08:32:06.033Z,2.80
2023-02-02T08:35:09.214Z,2.88
2023-02-02T08:38:12.200Z,2.60
2023-02-02T08:41:18.567Z,1.77
2023-02-02T08:44:21.307Z,1.03
2023-02-02T08:47:30.001Z,0.98
2023-02-02T08:50:34.417Z,0.57
2023-02-02T08:53:38.034Z,0.60
2023-02-02T08:56:40.917Z,1.00
2023-02-02T08:59:43.836Z,1.10
2023-02-02T09:02:51.198Z,1.02
2023-02-02T09:05:56.494Z,1.00
2023-02-02T09:09:01.980Z,1.10
2023-02-02T09:12:05.032Z,1.05
2023-02-02T09:15:08.129Z,1.03
2023-02-02T09:18:11.126Z,1.20
2023-02-02T09:21:16.246Z,1.00
2023-02-02T09:24:19.284Z,0.82
2023-02-02T09:27:22.517Z,1.00
2023-02-02T09:30:25.388Z,0.67
2023-02-02T09:33:28.294Z,0.98
2023-02-02T09:36:32.327Z,0.98
2023-02-02T09:39:35.348Z,1.10
2023-02-02T09:42:44.274Z,1.02
2023-02-02T09:45:58.657Z,1.20
2023-02-02T09:49:11.472Z,1.23
2023-02-02T09:52:20.822Z,1.60
2023-02-02T09:55:30.139Z,1.80
2023-02-02T09:59:02.147Z,1.63
2023-02-02T10:02:22.362Z,0.90
2023-02-02T10:05:30.305Z,1.40
2023-02-02T10:08:46.007Z,1.23
2023-02-02T10:12:17.480Z,1.20
2023-02-02T10:15:39.857Z,1.73
2023-02-02T10:18:56.605Z,1.43
2023-02-02T10:22:20.065Z,1.75
2023-02-02T10:25:26.653Z,1.63
2023-02-02T10:28:44.950Z,2.47
2023-02-02T10:32:06.727Z,4.05
2023-02-02T10:35:27.610Z,3.77
2023-02-02T10:38:53.162Z,6.15
2023-02-02T10:42:34.271Z,3.08
2023-02-02T10:45:39.512Z,2.78
2023-02-02T10:48:46.630Z,2.95
2023-02-02T10:52:08.256Z,2.97
2023-02-02T10:55:14.292Z,2.60
2023-02-02T10:58:39.173Z,2.05
2023-02-02T11:01:43.324Z,2.30
2023-02-02T11:05:07.112Z,2.30
2023-02-02T11:08:13.894Z,1.03
2023-02-02T11:11:38.610Z,1.10
2023-02-02T11:14:47.889Z,3.05
2023-02-02T11:17:51.116Z,4.07
2023-02-02T11:20:54.997Z,3.08
2023-02-02T11:24:23.988Z,1.93
2023-02-02T11:27:33.511Z,1.00
2023-02-02T11:30:38.534Z,1.20
2023-02-02T11:33:41.324Z,1.27
2023-02-02T11:37:00.431Z,1.50
2023-02-02T11:40:30.181Z,1.33
2023-02-02T11:43:52.535Z,0.60
2023-02-02T11:46:56.947Z,0.73
2023-02-02T11:50:02.726Z,0.55
2023-02-02T11:53:07.064Z,0.40
2023-02-02T11:56:19.240Z,0.50
2023-02-02T11:59:34.966Z,1.70
2023-02-02T12:02:45.361Z,1.88
2023-02-02T12:05:50.093Z,2.33
2023-02-02T12:08:58.499Z,2.72
2023-02-02T12:12:30.934Z,5.23
2023-02-02T12:15:55.459Z,2.25
2023-02-02T12:19:24.652Z,1.67
2023-02-02T12:22:36.370Z,0.90
2023-02-02T12:26:27.362Z,0.60
2023-02-02T12:29:59.347Z,1.40
2023-02-02T12:33:08.416Z,1.55
2023-02-02T12:36:14.133Z,2.10
2023-02-02T12:39:30.564Z,1.67
2023-02-02T12:42:51.552Z,1.30
2023-02-02T12:46:21.632Z,0.53
2023-02-02T12:50:03.019Z,1.15
2023-02-02T12:53:30.712Z,1.75
2023-02-02T12:56:40.244Z,1.50
2023-02-02T13:00:25.012Z,1.92
2023-02-02T13:03:35.158Z,1.50
2023-02-02T13:06:53.989Z,2.30
2023-02-02T13:10:28.653Z,2.90
2023-02-02T13:13:37.700Z,3.58
2023-02-02T13:16:48.614Z,1.45
2023-02-02T13:19:56.428Z,1.27
2023-02-02T13:23:03.536Z,0.90
2023-02-02T13:26:20.158Z,1.50
2023-02-02T13:29:50.737Z,1.27
2023-02-02T13:32:58.327Z,1.70
2023-02-02T13:36:06.307Z,1.30
2023-02-02T13:39:45.243Z,1.55
2023-02-02T13:43:04.904Z,0.98
2023-02-02T13:46:24.123Z,1.00
2023-02-02T13:49:44.893Z,1.67
2023-02-02T13:53:02.851Z,1.60
2023-02-02T13:56:49.100Z,2.30
2023-02-02T13:59:55.286Z,1.60
2023-02-02T14:03:03.469Z,1.80
2023-02-02T14:06:17.109Z,2.63
2023-02-02T14:09:20.415Z,4.40
2023-02-02T14:12:33.183Z,3.55
2023-02-02T14:15:44.699Z,2.88
2023-02-02T14:18:51.048Z,1.70
2023-02-02T14:22:01.479Z,2.17
2023-02-02T14:25:24.897Z,2.43
2023-02-02T14:28:43.463Z,4.57
2023-02-02T14:31:55.238Z,3.67
2023-02-02T14:35:00.420Z,3.55
2023-02-02T14:38:14.708Z,6.05
2023-02-02T14:42:06.669Z,2.60
2023-02-02T14:45:21.989Z,2.55
2023-02-02T14:48:25.797Z,2.30
2023-02-02T14:51:32.199Z,1.73
2023-02-02T14:54:40.105Z,3.20
2023-02-02T14:57:43.051Z,2.30
2023-02-02T15:01:05.674Z,2.20
2023-02-02T15:04:21.216Z,2.90
2023-02-02T15:07:23.894Z,3.40
2023-02-02T15:10:54.130Z,3.65
2023-02-02T15:14:07.192Z,2.43
2023-02-02T15:17:31.271Z,2.00
2023-02-02T15:20:44.805Z,3.65
2023-02-02T15:23:47.939Z,4.40
2023-02-02T15:26:54.709Z,5.53
2023-02-02T15:30:03.849Z,6.43
2023-02-02T15:33:28.124Z,7.22
2023-02-02T15:36:37.768Z,4.07
2023-02-02T15:39:43.524Z,4.00
2023-02-02T15:42:54.243Z,3.25
2023-02-02T15:46:04.879Z,3.03
2023-02-02T15:49:36.044Z,3.38
2023-02-02T15:52:47.471Z,4.82
2023-02-02T15:55:50.751Z,8.00
2023-02-02T15:58:56.347Z,8.52
2023-02-02T16:02:11.749Z,8.50
2023-02-02T16:05:36.728Z,8.25
2023-02-02T16:08:41.224Z,7.65
2023-02-02T16:11:45.911Z,10.45
2023-02-02T16:14:54.346Z,13.07
2023-02-02T16:18:00.735Z,10.60
2023-02-02T16:21:16.239Z,9.60
2023-02-02T16:24:41.810Z,8.85
2023-02-02T16:27:47.558Z,12.50
2023-02-02T16:30:52.597Z,8.40
2023-02-02T16:33:57.161Z,10.20
2023-02-02T16:37:15.311Z,11.40
2023-02-02T16:40:29.731Z,12.90
2023-02-02T16:43:33.730Z,10.88
2023-02-02T16:46:44.342Z,10.75
2023-02-02T16:49:47.232Z,9.27
2023-02-02T16:53:03.658Z,10.77
2023-02-02T16:56:07.932Z,8.88
2023-02-02T16:59:25.539Z,9.82
2023-02-02T17:02:41.164Z,9.63
2023-02-02T17:05:54.540Z,10.83
2023-02-02T17:08:57.351Z,12.05
2023-02-02T17:12:32.135Z,10.70
2023-02-02T17:15:37.143Z,10.57
2023-02-02T17:18:40.397Z,11.10
2023-02-02T17:21:43.503Z,10.47
2023-02-02T17:24:48.302Z,9.38
2023-02-02T17:27:51.421Z,9.95
2023-02-02T17:31:00.674Z,9.52
2023-02-02T17:34:04.436Z,8.45
2023-02-02T17:37:07.730Z,8.87
2023-02-02T17:40:18.214Z,6.75
2023-02-02T17:43:21.397Z,6.70
2023-02-02T17:46:24.535Z,5.70
2023-02-02T17:49:27.436Z,4.38
2023-02-02T17:52:30.291Z,4.33
2023-02-02T17:55:38.954Z,4.20
2023-02-02T17:58:42.396Z,8.68
2023-02-02T18:01:46.506Z,7.95
2023-02-02T18:04:49.296Z,6.47
2023-02-02T18:07:55.014Z,4.00
2023-02-02T18:10:59.573Z,2.67
2023-02-02T18:14:02.622Z,3.78
2023-02-02T18:17:08.368Z,4.38
2023-02-02T18:20:15.231Z,3.90
2023-02-02T18:23:19.404Z,4.33
2023-02-02T18:26:23.296Z,4.63
2023-02-02T18:29:26.376Z,6.15
2023-02-02T18:32:29.496Z,6.68
2023-02-02T18:35:32.245Z,5.55
2023-02-02T18:38:35.085Z,7.13
2023-02-02T18:41:38.162Z,5.47
2023-02-02T18:44:42.944Z,3.92
2023-02-02T18:47:45.858Z,4.00
2023-02-02T18:50:48.977Z,4.72
2023-02-02T18:53:51.956Z,7.33
2023-02-02T18:56:54.919Z,5.30
2023-02-02T18:59:57.755Z,4.65
2023-02-02T19:03:00.828Z,2.80
2023-02-02T19:06:23.357Z,2.55
2023-02-02T19:09:26.414Z,2.23
2023-02-02T19:12:29.458Z,2.03
2023-02-02T19:15:39.446Z,2.13
2023-02-02T19:18:44.142Z,1.50
2023-02-02T19:21:47.128Z,1.45
2023-02-02T19:24:52.967Z,1.40
2023-02-02T19:27:55.822Z,1.42
2023-02-02T19:31:01.572Z,2.00
2023-02-02T19:34:13.687Z,1.92
2023-02-02T19:37:28.676Z,1.25
2023-02-02T19:40:31.712Z,1.60
2023-02-02T19:43:36.635Z,1.40
2023-02-02T19:46:43.898Z,1.55
2023-02-02T19:49:47.048Z,1.38
2023-02-02T19:52:51.117Z,0.80
2023-02-02T19:55:54.755Z,1.00
2023-02-02T19:58:59.168Z,0.73
2023-02-02T20:02:41.549Z,0.90
2023-02-02T20:05:47.494Z,0.70
2023-02-02T20:08:51.616Z,0.88
2023-02-02T20:11:56.683Z,1.57
2023-02-02T20:14:59.707Z,1.30
2023-02-02T20:18:14.565Z,0.95
2023-02-02T20:21:34.491Z,1.40
2023-02-02T20:24:43.190Z,1.80
2023-02-02T20:27:46.308Z,1.33
2023-02-02T20:30:49.454Z,0.85
2023-02-02T20:33:55.492Z,0.77
2023-02-02T20:37:14.180Z,0.60
2023-02-02T20:40:20.153Z,0.90
2023-02-02T20:43:23.237Z,0.47
2023-02-02T20:46:26.104Z,0.45
2023-02-02T20:49:32.015Z,0.80
2023-02-02T20:52:35.573Z,0.60
2023-02-02T20:55:38.531Z,0.60
2023-02-02T20:58:41.347Z,0.70
2023-02-02T21:01:44.548Z,0.70
2023-02-02T21:04:48.839Z,1.10
2023-02-02T21:07:54.998Z,1.40
2023-02-02T21:10:57.794Z,1.05
2023-02-02T21:14:01.036Z,0.80
2023-02-02T21:17:14.384Z,1.25
2023-02-02T21:20:18.183Z,0.63
2023-02-02T21:23:22.032Z,0.50
2023-02-02T21:26:29.990Z,1.45
2023-02-02T21:29:33.497Z,1.03
2023-02-02T21:32:36.378Z,0.98
2023-02-02T21:35:39.252Z,0.85
2023-02-02T21:38:42.143Z,0.80
2023-02-02T21:41:45.433Z,1.70
2023-02-02T21:44:54.348Z,1.20
2023-02-02T21:48:05.319Z,0.65
2023-02-02T21:51:29.177Z,1.10
2023-02-02T21:54:37.714Z,1.50
2023-02-02T21:57:42.333Z,1.85
2023-02-02T22:00:45.748Z,1.80
2023-02-02T22:03:50.113Z,3.05
2023-02-02T22:07:09.519Z,3.00
2023-02-02T22:10:34.148Z,2.70
2023-02-02T22:13:36.843Z,3.88
2023-02-02T22:16:44.096Z,3.30
2023-02-02T22:19:46.968Z,3.92
2023-02-02T22:22:51.537Z,2.83
2023-02-02T22:25:56.413Z,2.90
2023-02-02T22:28:59.488Z,3.10
2023-02-02T22:32:02.495Z,3.73
2023-02-02T22:35:05.733Z,3.63
2023-02-02T22:38:09.618Z,4.55
2023-02-02T22:41:12.458Z,4.43
2023-02-02T22:44:15.511Z,3.33
2023-02-02T22:47:18.213Z,3.17
2023-02-02T22:50:26.794Z,2.60
2023-02-02T22:53:29.771Z,1.80
2023-02-02T22:56:32.696Z,1.95
2023-02-02T22:59:35.890Z,2.33
2023-02-02T23:02:40.916Z,2.20
2023-02-02T23:05:43.792Z,1.90
2023-02-02T23:08:46.838Z,1.08
2023-02-02T23:11:49.965Z,0.82
2023-02-02T23:14:52.838Z,1.33
2023-02-02T23:17:55.654Z,0.80
2023-02-02T23:20:58.729Z,0.90
2023-02-02T23:24:01.612Z,1.00
2023-02-02T23:27:04.927Z,0.93
2023-02-02T23:30:09.572Z,1.17
2023-02-02T23:33:12.342Z,0.80
2023-02-02T23:36:15.213Z,0.80
2023-02-02T23:39:18.110Z,0.90
2023-02-02T23:42:21.205Z,1.20
2023-02-02T23:45:24.078Z,0.63
2023-02-02T23:48:26.969Z,0.90
2023-02-02T23:51:30.012Z,0.80
2023-02-02T23:54:33.845Z,1.02
2023-02-02T23:57:37.891Z,0.88
